All Spectrum Aviation - Van Nuys Airport - KVNY

HOME

Condor Squadron KVNY Webcam

Visit our Electronics Store

Condor Squadron Webcam - Van Nuys Airport - KVNY
Picture taken: Mon, 24 Sep 2018 02:34:28 -0700
YouTube Channel!    Latest Timelapse Movie    Full Size Image    Regular Size Image    

2018/09/24 08:51 KVNY 240851Z AUTO 14004KT 10SM CLR 18/15 A2986 RMK AO2 SLP102 T01780150 50002

HOME

Condor Squadron KVNY Webcam

Visit our Electronics Store